메인 페이지
METAR-TAF:

METAR-TAF

공항 :

아카풀코, 멕시코

위도: 16-46N, 경도: 099-45W, 고도: 5m

현재 날씨관측

예보는 1 시간 8분 전, 03:48시(UTC)에 발표되었습니다.
북북동3kt
온도 27°C
습도 89%
기압 1011 hPa
시정: 11.3km
고도 2000ft 상공 구름 조금
고도 30000ft 상공 구름 조금

METAR: MMAA 160348Z 03003KT 7SM FEW020 FEW300 27/25 A2984 RMK 8/102 HZY TCU N

시각: 23:56 (04:56 UTC)

예보

예보는 5 시간 29분 전, 23:27시(UTC)에 발표되었습니다.
예보 대상 시간: 16일 00시부터 17일 06시까지 (UTC)
서남서10kt
시정: 10km
고도 2000ft 상공 구름 많음
일시적
16일 00시부터 16일 04시까지 (UTC)
시정: 8.0km
고도 2000ft 상공 구름 많음, 적란운.
16일 0600시부터 (UTC)
북북서5kt
시정: 10km
고도 2000ft 상공 구름 보통
고도 9000ft 상공 구름 보통
16일 1200시부터 (UTC)
북북서5kt
시정: 10km
고도 10000ft 상공 구름 많음
고도 30000ft 상공 구름 많음
16일 1800시부터 (UTC)
서남서10kt
시정: 10km
고도 2000ft 상공 구름 보통
고도 10000ft 상공 구름 많음
확률 40%
16일 21시부터 17일 01시까지 (UTC)
시정: 8.0km
고도 2000ft 상공 구름 많음, 적란운.

TAF: MMAA 152327Z 1600/1706 24010KT P6SM BKN020 TX30/1620Z TN24/1613Z TEMPO 1600/1604 5SM RA BKN020CB FM160600 34005KT P6SM SCT020 SCT090 FM161200 34005KT P6SM BKN100 BKN300 FM161800 24010KT P6SM SCT020 BKN100 PROB40 1621/1701 5SM RA BKN020CB

4,000개 이상의 공항 관측 자료 및 예보 (METAR 및 TAF 보고).

지도상에서 검색 가능한 기상관측소가 노란 점과 빨간 점으로 표시되어 있습니다.

기상관측소 명을 보려면 표시 위로 마우스를 이동하세요.

날씨 관측과 예보를 보려면 클릭하세요.

지도 변경 : 확대하려면 엑스 표시가 있는 녹색 버튼, 축소하려면 빼기 표시가 있는 녹색 버튼, 다음 페이지의 지도를 보려면 녹색 화살표를 클릭하세요.


METAR-TAF: